createdAt,value
2022-11-10T00:01:08.903Z,0.77
2022-11-10T00:03:37.738Z,0.82
2022-11-10T00:06:09.567Z,0.98
2022-11-10T00:08:36.523Z,0.70
2022-11-10T00:11:07.798Z,0.80
2022-11-10T00:13:56.916Z,0.50
2022-11-10T00:16:42.561Z,0.63
2022-11-10T00:19:09.448Z,0.40
2022-11-10T00:21:37.259Z,0.50
2022-11-10T00:24:04.620Z,0.40
2022-11-10T00:26:31.900Z,0.50
2022-11-10T00:28:58.725Z,0.60
2022-11-10T00:31:28.538Z,0.50
2022-11-10T00:33:55.762Z,1.08
2022-11-10T00:36:22.623Z,0.90
2022-11-10T00:38:52.218Z,0.93
2022-11-10T00:41:19.181Z,0.90
2022-11-10T00:43:46.037Z,1.10
2022-11-10T00:46:13.116Z,0.80
2022-11-10T00:48:39.910Z,1.40
2022-11-10T00:51:06.976Z,1.00
2022-11-10T00:53:33.767Z,1.00
2022-11-10T00:56:00.556Z,1.42
2022-11-10T00:58:27.373Z,0.80
2022-11-10T01:01:02.375Z,1.00
2022-11-10T01:03:29.917Z,0.63
2022-11-10T01:05:56.663Z,0.65
2022-11-10T01:08:24.108Z,0.60
2022-11-10T01:10:50.955Z,0.60
2022-11-10T01:13:17.836Z,0.70
2022-11-10T01:15:44.598Z,1.20
2022-11-10T01:18:11.383Z,1.17
2022-11-10T01:20:38.143Z,0.98
2022-11-10T01:23:05.051Z,1.10
2022-11-10T01:25:31.888Z,1.00
2022-11-10T01:27:58.690Z,0.98
2022-11-10T01:30:25.475Z,0.95
2022-11-10T01:32:52.334Z,0.95
2022-11-10T01:35:19.065Z,0.90
2022-11-10T01:37:45.854Z,0.93
2022-11-10T01:40:13.225Z,0.80
2022-11-10T01:42:59.088Z,1.20
2022-11-10T01:45:25.822Z,1.08
2022-11-10T01:47:59.671Z,1.48
2022-11-10T01:50:29.004Z,0.93
2022-11-10T01:52:59.927Z,1.00
2022-11-10T01:55:27.418Z,0.90
2022-11-10T01:57:55.409Z,0.88
2022-11-10T02:00:22.784Z,0.98
2022-11-10T02:03:02.569Z,1.02
2022-11-10T02:05:29.631Z,0.85
2022-11-10T02:07:57.205Z,1.05
2022-11-10T02:10:23.989Z,0.77
2022-11-10T02:12:51.030Z,0.90
2022-11-10T02:15:19.197Z,0.80
2022-11-10T02:17:47.763Z,0.82
2022-11-10T02:20:18.470Z,0.93
2022-11-10T02:22:45.385Z,1.00
2022-11-10T02:25:17.049Z,0.90
2022-11-10T02:27:43.865Z,1.25
2022-11-10T02:30:11.604Z,0.85
2022-11-10T02:32:38.392Z,0.85
2022-11-10T02:35:05.793Z,0.65
2022-11-10T02:37:32.615Z,0.65
2022-11-10T02:39:59.422Z,0.70
2022-11-10T02:42:26.250Z,0.45
2022-11-10T02:44:53.170Z,0.55
2022-11-10T02:47:19.934Z,0.50
2022-11-10T02:49:46.772Z,0.50
2022-11-10T02:52:13.526Z,0.35
2022-11-10T02:54:40.331Z,0.30
2022-11-10T02:57:07.172Z,0.30
2022-11-10T02:59:33.952Z,0.43
2022-11-10T03:02:00.716Z,0.50
2022-11-10T03:04:27.544Z,0.70
2022-11-10T03:06:54.336Z,0.70
2022-11-10T03:09:21.226Z,0.57
2022-11-10T03:11:48.026Z,0.70
2022-11-10T03:14:14.833Z,0.63
2022-11-10T03:16:41.579Z,0.40
2022-11-10T03:19:08.850Z,0.55
2022-11-10T03:21:35.627Z,0.40
2022-11-10T03:24:02.371Z,0.50
2022-11-10T03:26:29.544Z,0.20
2022-11-10T03:28:56.289Z,0.30
2022-11-10T03:31:23.066Z,0.30
2022-11-10T03:33:49.814Z,0.22
2022-11-10T03:36:16.751Z,0.30
2022-11-10T03:38:43.463Z,0.50
2022-11-10T03:41:19.241Z,0.40
2022-11-10T03:43:47.311Z,0.50
2022-11-10T03:46:14.277Z,0.70
2022-11-10T03:48:41.095Z,1.92
2022-11-10T03:51:07.964Z,0.80
2022-11-10T03:53:34.791Z,0.90
2022-11-10T03:56:02.662Z,0.90
2022-11-10T03:58:29.449Z,1.02
2022-11-10T04:00:56.271Z,1.20
2022-11-10T04:03:23.795Z,0.88
2022-11-10T04:06:10.241Z,1.00
2022-11-10T04:09:12.573Z,1.08
2022-11-10T04:11:57.993Z,0.90
2022-11-10T04:14:43.678Z,1.38
2022-11-10T04:17:10.486Z,1.00
2022-11-10T04:19:37.580Z,0.93
2022-11-10T04:22:04.362Z,0.93
2022-11-10T04:24:31.259Z,0.85
2022-11-10T04:26:58.049Z,0.90
2022-11-10T04:29:24.860Z,0.90
2022-11-10T04:31:51.635Z,1.10
2022-11-10T04:34:18.438Z,1.15
2022-11-10T04:36:45.334Z,0.80
2022-11-10T04:39:12.717Z,1.10
2022-11-10T04:41:39.610Z,1.27
2022-11-10T04:44:06.552Z,1.10
2022-11-10T04:46:39.108Z,1.00
2022-11-10T04:49:07.336Z,1.27
2022-11-10T04:51:37.817Z,1.35
2022-11-10T04:54:06.761Z,1.23
2022-11-10T04:56:34.890Z,0.82
2022-11-10T04:59:01.900Z,1.17
2022-11-10T05:01:29.336Z,1.00
2022-11-10T05:03:56.415Z,1.10
2022-11-10T05:06:23.790Z,0.85
2022-11-10T05:08:51.333Z,1.30
2022-11-10T05:11:18.942Z,1.10
2022-11-10T05:13:46.673Z,1.02
2022-11-10T05:16:14.240Z,1.40
2022-11-10T05:18:41.658Z,1.23
2022-11-10T05:21:08.769Z,1.15
2022-11-10T05:23:38.273Z,1.30
2022-11-10T05:26:11.416Z,1.08
2022-11-10T05:28:39.199Z,0.90
2022-11-10T05:31:06.109Z,1.75
2022-11-10T05:33:33.538Z,1.05
2022-11-10T05:36:00.710Z,1.10
2022-11-10T05:38:28.147Z,0.70
2022-11-10T05:40:54.974Z,0.98
2022-11-10T05:43:22.136Z,1.38
2022-11-10T05:45:49.174Z,1.40
2022-11-10T05:48:16.244Z,1.45
2022-11-10T05:50:44.291Z,1.65
2022-11-10T05:53:11.283Z,1.90
2022-11-10T05:55:38.242Z,2.35
2022-11-10T05:58:05.409Z,2.03
2022-11-10T06:00:33.240Z,2.17
2022-11-10T06:03:01.770Z,1.60
2022-11-10T06:05:31.415Z,1.30
2022-11-10T06:07:58.993Z,1.20
2022-11-10T06:10:26.027Z,1.05
2022-11-10T06:12:53.363Z,0.90
2022-11-10T06:15:20.311Z,0.60
2022-11-10T06:17:47.309Z,0.60
2022-11-10T06:20:15.032Z,0.55
2022-11-10T06:22:41.997Z,0.32
2022-11-10T06:25:09.439Z,0.50
2022-11-10T06:27:36.297Z,0.63
2022-11-10T06:30:04.379Z,0.40
2022-11-10T06:32:33.009Z,0.40
2022-11-10T06:35:00.827Z,0.57
2022-11-10T06:37:28.096Z,0.57
2022-11-10T06:39:54.841Z,0.50
2022-11-10T06:42:21.658Z,0.90
2022-11-10T06:44:48.373Z,1.00
2022-11-10T06:47:16.321Z,1.25
2022-11-10T06:49:43.065Z,1.20
2022-11-10T06:52:09.883Z,0.98
2022-11-10T06:54:36.680Z,0.80
2022-11-10T06:57:03.590Z,0.80
2022-11-10T06:59:30.347Z,0.80
2022-11-10T07:01:57.289Z,0.70
2022-11-10T07:04:24.152Z,0.90
2022-11-10T07:06:51.019Z,0.75
2022-11-10T07:09:17.851Z,1.13
2022-11-10T07:11:44.797Z,0.93
2022-11-10T07:14:11.680Z,0.80
2022-11-10T07:16:38.573Z,1.13
2022-11-10T07:19:05.514Z,0.90
2022-11-10T07:21:32.301Z,1.25
2022-11-10T07:23:59.047Z,1.02
2022-11-10T07:26:25.936Z,1.00
2022-11-10T07:28:52.772Z,1.20
2022-11-10T07:31:19.574Z,0.98
2022-11-10T07:33:53.341Z,1.42
2022-11-10T07:36:21.592Z,1.30
2022-11-10T07:38:48.396Z,1.30
2022-11-10T07:41:15.172Z,1.45
2022-11-10T07:43:42.083Z,1.17
2022-11-10T07:46:09.964Z,1.60
2022-11-10T07:48:36.737Z,1.20
2022-11-10T07:51:03.559Z,1.00
2022-11-10T07:53:30.330Z,1.10
2022-11-10T07:55:58.095Z,1.00
2022-11-10T07:58:24.876Z,1.05
2022-11-10T08:00:52.572Z,1.30
2022-11-10T08:03:22.103Z,1.10
2022-11-10T08:05:49.339Z,1.35
2022-11-10T08:08:16.247Z,1.35
2022-11-10T08:10:43.225Z,1.48
2022-11-10T08:13:12.532Z,1.85
2022-11-10T08:15:40.206Z,1.35
2022-11-10T08:18:15.785Z,1.58
2022-11-10T08:20:42.770Z,1.55
2022-11-10T08:23:09.953Z,1.70
2022-11-10T08:25:37.969Z,1.88
2022-11-10T08:28:15.746Z,1.88
2022-11-10T08:30:44.942Z,1.65
2022-11-10T08:33:13.616Z,2.40
2022-11-10T08:35:43.132Z,2.17
2022-11-10T08:38:12.422Z,2.30
2022-11-10T08:40:39.926Z,2.40
2022-11-10T08:43:10.625Z,1.98
2022-11-10T08:45:39.788Z,2.20
2022-11-10T08:48:20.493Z,1.80
2022-11-10T08:50:49.497Z,1.92
2022-11-10T08:53:24.749Z,1.70
2022-11-10T08:55:53.346Z,2.40
2022-11-10T08:58:22.561Z,1.98
2022-11-10T09:00:49.839Z,2.10
2022-11-10T09:03:22.653Z,2.03
2022-11-10T09:05:56.647Z,2.10
2022-11-10T09:08:25.204Z,2.40
2022-11-10T09:10:52.041Z,2.05
2022-11-10T09:13:26.268Z,2.63
2022-11-10T09:15:56.302Z,1.92
2022-11-10T09:18:23.028Z,1.92
2022-11-10T09:20:49.786Z,2.50
2022-11-10T09:23:18.753Z,2.63
2022-11-10T09:25:53.459Z,2.38
2022-11-10T09:28:20.751Z,3.28
2022-11-10T09:30:49.597Z,3.10
2022-11-10T09:33:17.139Z,2.53
2022-11-10T09:35:44.143Z,2.95
2022-11-10T09:38:12.169Z,2.63
2022-11-10T09:40:58.464Z,3.15
2022-11-10T09:43:39.934Z,3.53
2022-11-10T09:46:15.872Z,3.20
2022-11-10T09:48:49.571Z,2.88
2022-11-10T09:51:22.299Z,3.10
2022-11-10T09:54:09.521Z,3.03
2022-11-10T09:56:37.839Z,3.15
2022-11-10T09:59:22.094Z,2.90
2022-11-10T10:02:00.745Z,3.47
2022-11-10T10:04:39.663Z,3.13
2022-11-10T10:07:38.770Z,3.15
2022-11-10T10:10:26.003Z,3.40
2022-11-10T10:13:04.321Z,3.47
2022-11-10T10:15:55.753Z,2.90
2022-11-10T10:18:37.710Z,2.67
2022-11-10T10:21:36.618Z,3.22
2022-11-10T10:24:11.482Z,2.97
2022-11-10T10:26:47.437Z,2.92
2022-11-10T10:29:22.725Z,3.17
2022-11-10T10:31:51.390Z,2.90
2022-11-10T10:34:25.177Z,2.78
2022-11-10T10:36:51.931Z,2.90
2022-11-10T10:39:50.071Z,2.85
2022-11-10T10:42:28.627Z,2.70
2022-11-10T10:45:21.978Z,4.30
2022-11-10T10:47:53.981Z,3.00
2022-11-10T10:50:32.259Z,2.83
2022-11-10T10:53:19.434Z,3.17
2022-11-10T10:56:00.232Z,2.92
2022-11-10T10:58:36.446Z,3.28
2022-11-10T11:01:15.469Z,2.85
2022-11-10T11:03:50.247Z,2.78
2022-11-10T11:06:17.454Z,2.88
2022-11-10T11:08:59.390Z,2.63
2022-11-10T11:11:30.260Z,3.38
2022-11-10T11:14:26.345Z,2.53
2022-11-10T11:16:56.384Z,2.72
2022-11-10T11:19:27.477Z,2.50
2022-11-10T11:22:17.488Z,2.28
2022-11-10T11:24:59.367Z,1.98
2022-11-10T11:27:38.212Z,2.72
2022-11-10T11:30:15.956Z,2.30
2022-11-10T11:32:52.179Z,2.03
2022-11-10T11:35:44.723Z,2.25
2022-11-10T11:38:31.321Z,2.33
2022-11-10T11:41:11.107Z,2.60
2022-11-10T11:43:38.815Z,2.15
2022-11-10T11:46:05.951Z,2.33
2022-11-10T11:48:33.680Z,2.03
2022-11-10T11:51:24.004Z,2.65
2022-11-10T11:53:57.316Z,2.30
2022-11-10T11:56:41.947Z,2.38
2022-11-10T11:59:24.819Z,2.22
2022-11-10T12:01:58.462Z,2.20
2022-11-10T12:04:25.691Z,2.28
2022-11-10T12:07:02.160Z,2.33
2022-11-10T12:09:40.796Z,2.33
2022-11-10T12:12:20.263Z,2.10
2022-11-10T12:14:55.384Z,2.30
2022-11-10T12:17:45.678Z,2.30
2022-11-10T12:20:18.935Z,2.47
2022-11-10T12:22:46.149Z,2.17
2022-11-10T12:25:24.264Z,1.98
2022-11-10T12:27:56.807Z,2.58
2022-11-10T12:30:24.338Z,2.28
2022-11-10T12:33:23.837Z,2.10
2022-11-10T12:35:52.620Z,2.13
2022-11-10T12:38:20.214Z,2.10
2022-11-10T12:40:52.830Z,2.03
2022-11-10T12:43:29.507Z,2.80
2022-11-10T12:46:01.334Z,2.55
2022-11-10T12:48:32.011Z,1.98
2022-11-10T12:50:59.234Z,2.42
2022-11-10T12:53:34.993Z,1.98
2022-11-10T12:56:04.184Z,2.03
2022-11-10T12:58:31.368Z,2.08
2022-11-10T13:01:01.812Z,1.85
2022-11-10T13:03:30.562Z,1.85
2022-11-10T13:06:05.479Z,1.70
2022-11-10T13:08:58.841Z,1.60
2022-11-10T13:11:31.148Z,2.20
2022-11-10T13:14:03.326Z,1.85
2022-11-10T13:16:42.745Z,1.90
2022-11-10T13:19:11.184Z,2.10
2022-11-10T13:21:55.411Z,2.00
2022-11-10T13:24:22.644Z,2.20
2022-11-10T13:26:52.724Z,1.80
2022-11-10T13:29:32.224Z,2.00
2022-11-10T13:32:08.370Z,1.67
2022-11-10T13:34:36.439Z,1.92
2022-11-10T13:37:04.537Z,2.10
2022-11-10T13:39:33.080Z,1.60
2022-11-10T13:42:01.779Z,1.70
2022-11-10T13:44:33.671Z,2.03
2022-11-10T13:47:00.940Z,1.88
2022-11-10T13:49:40.410Z,2.03
2022-11-10T13:52:26.828Z,2.05
2022-11-10T13:54:59.879Z,1.70
2022-11-10T13:57:30.009Z,2.20
2022-11-10T13:59:59.379Z,1.92
2022-11-10T14:02:36.381Z,1.88
2022-11-10T14:05:08.140Z,1.80
2022-11-10T14:07:44.025Z,1.45
2022-11-10T14:10:16.979Z,1.67
2022-11-10T14:12:49.060Z,1.48
2022-11-10T14:15:20.839Z,1.60
2022-11-10T14:17:50.347Z,1.67
2022-11-10T14:20:40.824Z,1.48
2022-11-10T14:23:09.494Z,1.67
2022-11-10T14:25:39.219Z,1.63
2022-11-10T14:28:26.122Z,1.70
2022-11-10T14:30:54.166Z,2.30
2022-11-10T14:33:22.070Z,1.63
2022-11-10T14:35:53.693Z,2.13
2022-11-10T14:38:23.257Z,1.42
2022-11-10T14:40:51.504Z,1.55
2022-11-10T14:43:35.887Z,1.17
2022-11-10T14:46:04.642Z,1.25
2022-11-10T14:48:34.174Z,1.42
2022-11-10T14:51:10.232Z,1.35
2022-11-10T14:53:40.077Z,1.42
2022-11-10T14:56:14.837Z,1.33
2022-11-10T14:58:43.769Z,1.80
2022-11-10T15:01:27.468Z,2.00
2022-11-10T15:03:56.559Z,1.48
2022-11-10T15:06:23.770Z,1.10
2022-11-10T15:08:50.715Z,1.42
2022-11-10T15:11:49.559Z,1.33
2022-11-10T15:14:35.433Z,1.30
2022-11-10T15:17:06.087Z,1.10
2022-11-10T15:19:37.266Z,1.90
2022-11-10T15:22:32.615Z,1.30
2022-11-10T15:25:13.891Z,1.30
2022-11-10T15:27:40.952Z,1.10
2022-11-10T15:30:23.973Z,1.20
2022-11-10T15:32:51.426Z,1.20
2022-11-10T15:35:24.082Z,1.20
2022-11-10T15:38:06.260Z,0.90
2022-11-10T15:40:47.756Z,0.90
2022-11-10T15:43:26.475Z,0.85
2022-11-10T15:46:01.076Z,1.27
2022-11-10T15:48:38.209Z,1.10
2022-11-10T15:51:05.179Z,1.20
2022-11-10T15:53:37.379Z,0.90
2022-11-10T15:56:06.949Z,1.05
2022-11-10T15:58:33.806Z,1.10
2022-11-10T16:01:01.282Z,1.50
2022-11-10T16:03:28.031Z,1.70
2022-11-10T16:05:54.792Z,1.30
2022-11-10T16:08:23.231Z,1.40
2022-11-10T16:10:53.544Z,1.00
2022-11-10T16:13:28.657Z,1.50
2022-11-10T16:15:55.685Z,1.70
2022-11-10T16:18:25.731Z,1.45
2022-11-10T16:20:53.269Z,1.80
2022-11-10T16:23:20.660Z,1.95
2022-11-10T16:25:50.449Z,1.80
2022-11-10T16:28:26.367Z,1.70
2022-11-10T16:30:54.045Z,2.25
2022-11-10T16:33:23.689Z,2.05
2022-11-10T16:35:53.787Z,2.53
2022-11-10T16:38:26.905Z,2.25
2022-11-10T16:40:56.371Z,2.00
2022-11-10T16:43:24.107Z,2.10
2022-11-10T16:45:54.305Z,1.73
2022-11-10T16:48:24.973Z,2.00
2022-11-10T16:50:54.088Z,2.22
2022-11-10T16:53:23.856Z,1.80
2022-11-10T16:55:51.411Z,1.63
2022-11-10T16:58:18.892Z,1.10
2022-11-10T17:00:48.430Z,1.30
2022-11-10T17:03:39.970Z,1.08
2022-11-10T17:06:13.532Z,0.88
2022-11-10T17:08:41.351Z,0.80
2022-11-10T17:11:08.866Z,0.90
2022-11-10T17:13:35.956Z,0.90
2022-11-10T17:16:07.558Z,1.17
2022-11-10T17:18:35.572Z,1.17
2022-11-10T17:21:05.689Z,1.60
2022-11-10T17:23:35.370Z,1.77
2022-11-10T17:26:03.684Z,2.08
2022-11-10T17:28:30.701Z,1.50
2022-11-10T17:30:58.227Z,1.25
2022-11-10T17:33:25.509Z,1.70
2022-11-10T17:35:53.479Z,1.88
2022-11-10T17:38:34.125Z,1.70
2022-11-10T17:41:01.793Z,2.33
2022-11-10T17:43:28.758Z,2.00
2022-11-10T17:45:56.043Z,2.17
2022-11-10T17:48:23.011Z,1.77
2022-11-10T17:50:49.881Z,2.67
2022-11-10T17:53:24.387Z,2.22
2022-11-10T17:55:52.017Z,2.45
2022-11-10T17:58:18.868Z,2.67
2022-11-10T18:00:46.490Z,2.70
2022-11-10T18:03:18.159Z,3.20
2022-11-10T18:05:45.559Z,2.78
2022-11-10T18:08:13.992Z,2.83
2022-11-10T18:11:01.659Z,2.60
2022-11-10T18:13:28.639Z,2.08
2022-11-10T18:15:59.711Z,2.10
2022-11-10T18:18:29.479Z,1.70
2022-11-10T18:20:57.690Z,1.35
2022-11-10T18:23:24.899Z,1.35
2022-11-10T18:25:51.896Z,1.40
2022-11-10T18:28:19.044Z,0.93
2022-11-10T18:30:45.823Z,0.93
2022-11-10T18:33:13.471Z,1.27
2022-11-10T18:35:40.876Z,0.80
2022-11-10T18:38:09.284Z,1.00
2022-11-10T18:40:36.045Z,0.85
2022-11-10T18:43:07.284Z,0.90
2022-11-10T18:45:36.015Z,0.90
2022-11-10T18:48:04.339Z,0.98
2022-11-10T18:50:31.304Z,1.25
2022-11-10T18:52:58.367Z,2.60
2022-11-10T18:55:25.546Z,2.40
2022-11-10T18:57:52.931Z,3.40
2022-11-10T19:00:20.005Z,2.40
2022-11-10T19:02:46.937Z,1.70
2022-11-10T19:05:13.809Z,1.65
2022-11-10T19:07:40.728Z,1.40
2022-11-10T19:10:07.575Z,1.80
2022-11-10T19:12:34.658Z,1.40
2022-11-10T19:15:01.849Z,1.10
2022-11-10T19:17:28.601Z,1.13
2022-11-10T19:19:56.817Z,0.95
2022-11-10T19:22:23.875Z,1.02
2022-11-10T19:27:37.561Z,1.02
2022-11-10T19:30:04.806Z,0.93
2022-11-10T19:32:31.586Z,0.93
2022-11-10T19:34:58.664Z,1.02
2022-11-10T19:37:26.859Z,1.23
2022-11-10T19:39:57.852Z,1.00
2022-11-10T19:42:24.835Z,1.00
2022-11-10T19:44:54.759Z,1.00
2022-11-10T19:47:21.543Z,1.23
2022-11-10T19:49:48.325Z,1.17
2022-11-10T19:52:15.394Z,2.20
2022-11-10T19:54:43.616Z,1.60
2022-11-10T19:57:10.798Z,2.13
2022-11-10T19:59:38.409Z,1.60
2022-11-10T20:02:05.148Z,1.42
2022-11-10T20:04:31.932Z,1.27
2022-11-10T20:07:18.983Z,1.20
2022-11-10T20:09:45.845Z,1.00
2022-11-10T20:12:12.594Z,0.98
2022-11-10T20:14:39.457Z,1.00
2022-11-10T20:17:06.337Z,0.88
2022-11-10T20:19:40.724Z,0.98
2022-11-10T20:22:08.203Z,0.93
2022-11-10T20:24:36.157Z,0.90
2022-11-10T20:27:03.293Z,0.90
2022-11-10T20:29:30.084Z,1.30
2022-11-10T20:31:56.854Z,1.20
2022-11-10T20:34:23.967Z,1.20
2022-11-10T20:36:50.914Z,1.40
2022-11-10T20:39:17.774Z,1.67
2022-11-10T20:41:44.579Z,1.60
2022-11-10T20:44:11.390Z,1.40
2022-11-10T20:46:54.144Z,1.50
2022-11-10T20:49:21.906Z,0.93
2022-11-10T20:51:48.870Z,1.42
2022-11-10T20:54:17.435Z,1.55
2022-11-10T20:56:44.227Z,0.90
2022-11-10T20:59:11.506Z,0.98
2022-11-10T21:01:38.427Z,1.10
2022-11-10T21:04:06.258Z,1.20
2022-11-10T21:06:33.207Z,1.10
2022-11-10T21:09:00.138Z,1.00
2022-11-10T21:11:45.798Z,1.35
2022-11-10T21:14:12.718Z,1.10
2022-11-10T21:16:39.563Z,1.00
2022-11-10T21:19:06.491Z,0.90
2022-11-10T21:21:36.390Z,1.20
2022-11-10T21:24:04.954Z,1.50
2022-11-10T21:26:34.338Z,1.70
2022-11-10T21:29:02.060Z,1.20
2022-11-10T21:31:30.614Z,0.90
2022-11-10T21:33:58.547Z,1.10
2022-11-10T21:36:29.478Z,0.88
2022-11-10T21:38:57.719Z,1.20
2022-11-10T21:41:25.748Z,1.00
2022-11-10T21:43:52.592Z,1.05
2022-11-10T21:46:19.606Z,0.90
2022-11-10T21:48:46.628Z,1.10
2022-11-10T21:51:14.379Z,0.90
2022-11-10T21:53:44.588Z,0.77
2022-11-10T21:56:12.244Z,1.08
2022-11-10T21:58:39.778Z,0.77
2022-11-10T22:01:20.760Z,0.85
2022-11-10T22:03:47.843Z,0.90
2022-11-10T22:06:17.357Z,0.68
2022-11-10T22:08:46.094Z,0.80
2022-11-10T22:11:38.997Z,0.90
2022-11-10T22:14:31.003Z,0.73
2022-11-10T22:17:18.165Z,1.00
2022-11-10T22:19:45.113Z,0.70
2022-11-10T22:22:14.369Z,1.00
2022-11-10T22:24:41.329Z,1.15
2022-11-10T22:27:08.306Z,1.20
2022-11-10T22:29:35.124Z,1.20
2022-11-10T22:32:02.691Z,1.38
2022-11-10T22:34:30.013Z,1.33
2022-11-10T22:36:59.515Z,1.42
2022-11-10T22:39:46.496Z,1.20
2022-11-10T22:42:31.725Z,1.30
2022-11-10T22:44:58.647Z,1.77
2022-11-10T22:47:25.433Z,1.77
2022-11-10T22:49:52.198Z,2.47
2022-11-10T22:52:19.019Z,2.45
2022-11-10T22:54:45.781Z,2.20
2022-11-10T22:57:12.660Z,2.20
2022-11-10T22:59:39.554Z,2.10
2022-11-10T23:02:06.357Z,1.70
2022-11-10T23:04:33.183Z,1.58
2022-11-10T23:06:59.928Z,1.15
2022-11-10T23:09:26.691Z,1.02
2022-11-10T23:11:53.422Z,1.20
2022-11-10T23:14:20.190Z,0.90
2022-11-10T23:16:46.956Z,0.88
2022-11-10T23:19:13.818Z,1.20
2022-11-10T23:21:40.699Z,1.20
2022-11-10T23:24:07.753Z,0.90
2022-11-10T23:26:34.954Z,1.00
2022-11-10T23:29:01.761Z,0.90
2022-11-10T23:31:28.751Z,0.95
2022-11-10T23:33:56.985Z,1.00
2022-11-10T23:36:25.922Z,0.90
2022-11-10T23:38:54.113Z,1.08
2022-11-10T23:41:23.723Z,0.93
2022-11-10T23:43:50.605Z,1.13
2022-11-10T23:46:17.453Z,0.98
2022-11-10T23:48:44.470Z,1.30
2022-11-10T23:51:13.012Z,1.00
2022-11-10T23:53:40.031Z,1.00
2022-11-10T23:56:12.232Z,1.10
2022-11-10T23:58:39.133Z,1.48
